Time;durP1;ratioP1;P1;durP2;ratioP2;P2;SDS_P1;SDS_P2;PMS_P1;PMS_P2;Temp;Humidity;BMP_temperature;BMP_pressure;BME280_temperature;BME280_humidity;BME280_pressure;Samples;Min_cycle;Max_cycle;Signal;HPM_P1;HPM_P2
2023/03/30 00:16:31;;;;;;;10.15;4.50;;;;;;;13.07;69.82;100688.72;5935866;19;20020;-72
2023/03/30 00:54:14;;;;;;;9.20;4.20;;;;;;;12.95;69.64;100681.47;5993790;19;20089;-71
2023/03/30 01:07:27;;;;;;;;;;;;;;;;;;;;;
2023/03/30 01:26:36;;;;;;;10.65;4.85;;;;;;;12.94;71.00;100638.41;5960158;19;20015;-72
2023/03/30 01:29:49;;;;;;;;;;;;;;;;;;;;;
2023/03/30 01:57:48;;;;;;;11.10;3.78;;;;;;;12.70;73.35;100637.94;5895085;19;20765;-71
2023/03/30 02:04:13;;;;;;;10.30;3.92;;;;;;;12.65;74.11;100639.97;6007953;19;20003;-74
2023/03/30 02:06:23;;;;;;;9.82;3.67;;;;;;;12.58;74.55;100643.84;6070144;19;20011;-77
2023/03/30 02:08:33;;;;;;;11.82;4.30;;;;;;;12.57;74.94;100636.88;6095103;19;20060;-76
2023/03/30 02:10:44;;;;;;;10.23;4.15;;;;;;;12.52;75.34;100641.53;6095957;19;20013;-78
2023/03/30 02:12:52;;;;;;;8.68;3.67;;;;;;;12.51;75.57;100643.31;6072018;19;20013;-76
2023/03/30 02:15:00;;;;;;;11.27;3.70;;;;;;;12.51;75.77;100642.47;6099385;19;20002;-77
2023/03/30 02:17:10;;;;;;;11.40;4.00;;;;;;;12.54;75.91;100636.19;6094717;19;20022;-77
2023/03/30 02:19:18;;;;;;;9.07;3.67;;;;;;;12.61;76.17;100638.44;6093010;19;20480;-77
2023/03/30 02:21:23;;;;;;;10.85;3.80;;;;;;;12.61;76.30;100642.81;6101644;19;20014;-77
2023/03/30 02:23:35;;;;;;;12.50;4.22;;;;;;;12.61;76.50;100638.44;6095421;19;20601;-76
2023/03/30 02:25:43;;;;;;;8.70;3.42;;;;;;;12.61;76.74;100642.81;6099044;19;20010;-79
2023/03/30 02:27:48;;;;;;;12.52;3.33;;;;;;;12.66;76.61;100631.09;6101658;19;20011;-76
2023/03/30 02:29:55;;;;;;;8.13;3.13;;;;;;;12.64;77.01;100626.88;6098501;19;20007;-77
2023/03/30 02:32:01;;;;;;;9.05;3.50;;;;;;;12.59;77.00;100619.19;6098551;19;20993;-76
2023/03/30 02:34:23;;;;;;;11.50;3.33;;;;;;;12.57;77.40;100634.25;6083264;19;20007;-79
2023/03/30 02:36:43;;;;;;;11.67;3.03;;;;;;;12.58;77.37;100620.13;6103948;19;20680;-76
2023/03/30 02:39:03;;;;;;;8.35;3.20;;;;;;;12.61;77.61;100616.47;6100532;19;20050;-76
2023/03/30 02:52:07;;;;;;;;;;;;;;;;;;;;;
2023/03/30 03:04:44;;;;;;;;;;;;;;;;;;;;;
2023/03/30 03:07:04;;;;;;;8.15;3.08;;;;;;;12.66;76.61;100604.75;6112167;19;20347;-78
2023/03/30 03:09:14;;;;;;;6.72;2.85;;;;;;;12.65;76.93;100608.31;6111389;19;20055;-78
2023/03/30 03:11:18;;;;;;;6.88;2.70;;;;;;;12.73;76.55;100611.41;6121361;19;20257;-77
2023/03/30 03:13:23;;;;;;;6.32;3.13;;;;;;;12.72;76.55;100601.81;6119572;19;20378;-77
2023/03/30 03:15:29;;;;;;;7.03;2.63;;;;;;;12.69;76.92;100604.59;6125047;19;20050;-76
2023/03/30 03:17:34;;;;;;;7.82;3.15;;;;;;;12.69;76.97;100603.72;6122399;19;20552;-77
2023/03/30 03:19:41;;;;;;;8.07;2.75;;;;;;;12.66;77.20;100596.00;6117510;19;20031;-77
2023/03/30 03:21:46;;;;;;;8.60;2.90;;;;;;;12.68;77.21;100588.84;6110621;19;20018;-77
2023/03/30 03:23:51;;;;;;;10.20;3.30;;;;;;;12.78;77.15;100597.97;6111761;19;20014;-77
2023/03/30 03:25:56;;;;;;;7.78;3.38;;;;;;;12.78;77.19;100602.41;6105505;19;20011;-77
2023/03/30 03:28:02;;;;;;;10.10;2.85;;;;;;;12.78;77.26;100597.97;6107810;19;20011;-76
2023/03/30 03:30:09;;;;;;;9.57;2.83;;;;;;;12.74;77.30;100593.78;6103497;19;20653;-76
2023/03/30 03:32:15;;;;;;;8.57;2.97;;;;;;;12.70;77.65;100600.19;6103140;19;20441;-77
2023/03/30 03:34:20;;;;;;;7.70;2.67;;;;;;;12.65;78.14;100597.78;6083416;19;20348;-77
2023/03/30 03:36:28;;;;;;;10.30;2.97;;;;;;;12.64;77.86;100589.97;6102093;19;20455;-76
2023/03/30 04:00:41;;;;;;;11.00;3.45;;;;;;;12.34;79.05;100590.63;6056362;19;20140;-77
2023/03/30 04:02:46;;;;;;;12.07;3.40;;;;;;;12.31;79.07;100580.25;6100844;19;20006;-77
2023/03/30 04:04:52;;;;;;;14.90;3.80;;;;;;;12.24;80.95;100589.38;6102117;19;20047;-78
2023/03/30 04:06:57;;;;;;;15.55;3.05;;;;;;;12.16;82.12;100594.19;6102983;19;20250;-78
2023/03/30 04:09:02;;;;;;;19.55;4.45;;;;;;;12.02;83.43;100597.53;6099887;19;20010;-76
2023/03/30 04:11:13;;;;;;;13.60;3.95;;;;;;;11.86;85.07;100592.19;6103489;19;20407;-77
2023/03/30 04:13:18;;;;;;;12.23;3.72;;;;;;;11.79;85.83;100601.28;6089143;19;20011;-77
2023/03/30 04:15:23;;;;;;;14.40;3.72;;;;;;;11.75;85.91;100611.13;6105079;19;20031;-76
2023/03/30 04:17:27;;;;;;;13.15;4.22;;;;;;;11.72;86.01;100605.16;6101608;19;20069;-76
2023/03/30 04:19:32;;;;;;;15.68;4.75;;;;;;;11.66;86.31;100606.28;6102483;19;20124;-77
2023/03/30 04:21:39;;;;;;;11.52;3.50;;;;;;;11.60;86.61;100598.69;6103776;19;20417;-77
2023/03/30 04:23:48;;;;;;;16.20;4.82;;;;;;;11.60;86.35;100598.69;6105508;19;20519;-77
2023/03/30 04:25:53;;;;;;;21.13;4.65;;;;;;;11.63;85.91;100596.75;6102937;19;20020;-77
2023/03/30 04:28:03;;;;;;;11.02;3.75;;;;;;;11.58;86.48;100598.75;6098429;19;20015;-77
2023/03/30 04:30:12;;;;;;;21.05;4.40;;;;;;;11.56;86.50;100599.78;6100299;19;20010;-77
2023/03/30 04:32:19;;;;;;;12.55;3.45;;;;;;;11.54;86.50;100596.38;6103190;19;20365;-77
2023/03/30 04:34:25;;;;;;;18.45;5.88;;;;;;;11.49;86.51;100599.22;6097995;19;20466;-76
2023/03/30 04:36:30;;;;;;;17.20;4.63;;;;;;;11.48;86.67;100596.66;6102519;19;20962;-76
2023/03/30 04:38:37;;;;;;;15.18;4.00;;;;;;;11.42;86.80;100601.28;6102948;19;20007;-77
2023/03/30 04:40:41;;;;;;;20.63;4.45;;;;;;;11.47;85.84;100581.81;6105395;19;20332;-77
2023/03/30 04:42:48;;;;;;;20.67;5.03;;;;;;;11.43;85.38;100591.63;6099508;19;20102;-77
2023/03/30 04:44:56;;;;;;;20.75;4.70;;;;;;;11.34;85.55;100584.16;6103320;19;20014;-77
2023/03/30 04:47:01;;;;;;;19.10;4.32;;;;;;;11.30;85.28;100580.84;6100371;19;20442;-77
2023/03/30 04:49:06;;;;;;;14.40;4.38;;;;;;;11.27;85.29;100578.38;6103223;19;20006;-77
2023/03/30 04:51:11;;;;;;;15.63;4.47;;;;;;;11.20;85.07;100576.94;6102538;19;20075;-77
2023/03/30 04:53:18;;;;;;;15.43;4.80;;;;;;;11.14;85.17;100578.09;6103893;19;20010;-77
2023/03/30 04:55:23;;;;;;;21.27;5.10;;;;;;;11.12;84.97;100584.34;6103357;19;20010;-77
2023/03/30 04:57:30;;;;;;;18.73;3.95;;;;;;;11.05;84.76;100573.25;6101903;19;20007;-77
2023/03/30 04:59:35;;;;;;;15.77;3.90;;;;;;;11.01;85.11;100571.69;6104914;19;20022;-76
2023/03/30 05:01:45;;;;;;;17.23;4.32;;;;;;;10.98;85.01;100570.06;6101576;19;22494;-77
2023/03/30 05:03:50;;;;;;;20.98;4.25;;;;;;;10.96;84.77;100574.53;6105504;19;20381;-77
2023/03/30 05:05:58;;;;;;;20.02;3.83;;;;;;;10.94;84.11;100565.00;6105204;19;20011;-78
2023/03/30 05:08:03;;;;;;;16.42;4.35;;;;;;;10.93;84.08;100561.53;6102332;19;20133;-78
2023/03/30 05:10:09;;;;;;;13.40;3.85;;;;;;;10.94;83.82;100563.22;6097196;19;20533;-78
2023/03/30 05:12:14;;;;;;;15.05;3.70;;;;;;;10.93;83.97;100556.28;6099966;19;20058;-78
2023/03/30 05:14:19;;;;;;;15.43;4.63;;;;;;;10.89;84.23;100557.31;6098751;19;20006;-77
2023/03/30 05:16:27;;;;;;;18.13;4.03;;;;;;;10.81;84.68;100548.94;6097917;19;20022;-78
2023/03/30 05:18:34;;;;;;;21.70;4.70;;;;;;;10.85;84.50;100566.28;6092776;19;20039;-77
2023/03/30 05:20:39;;;;;;;18.85;4.00;;;;;;;10.82;84.87;100566.44;6096827;19;20026;-77
2023/03/30 05:22:45;;;;;;;13.90;4.57;;;;;;;10.77;84.84;100556.13;6097634;19;20046;-77
2023/03/30 05:24:53;;;;;;;14.18;4.32;;;;;;;10.73;85.16;100572.94;6101278;19;20031;-77
2023/03/30 05:26:58;;;;;;;23.02;4.47;;;;;;;10.77;85.29;100566.66;6100599;19;20027;-77
2023/03/30 05:29:03;;;;;;;20.42;4.32;;;;;;;10.76;85.08;100567.53;6099682;19;20093;-77
2023/03/30 05:31:08;;;;;;;22.20;4.80;;;;;;;10.70;85.64;100567.00;6096386;19;20012;-77
2023/03/30 05:33:13;;;;;;;20.83;4.78;;;;;;;10.65;85.79;100574.22;6098791;19;20018;-77
2023/03/30 05:35:21;;;;;;;16.58;3.72;;;;;;;10.77;85.04;100578.94;6100830;19;20010;-78
2023/03/30 05:37:26;;;;;;;15.50;4.78;;;;;;;10.69;85.47;100581.91;6091504;19;20006;-73
2023/03/30 05:39:31;;;;;;;16.45;5.03;;;;;;;10.71;85.13;100576.56;6100497;19;20009;-77
2023/03/30 05:41:35;;;;;;;19.05;3.85;;;;;;;10.67;85.72;100585.53;6099374;19;20475;-77
2023/03/30 05:43:40;;;;;;;23.67;4.35;;;;;;;10.66;85.28;100582.03;6098532;19;20010;-77
2023/03/30 05:45:45;;;;;;;22.52;5.75;;;;;;;10.63;85.74;100581.31;6101357;19;20110;-77
2023/03/30 05:47:50;;;;;;;14.70;3.90;;;;;;;10.62;85.69;100600.66;6101398;19;20454;-77
2023/03/30 05:49:55;;;;;;;20.38;4.38;;;;;;;10.64;85.63;100604.91;6101329;19;20140;-77
2023/03/30 05:52:03;;;;;;;20.35;4.95;;;;;;;10.65;85.54;100598.72;6101872;19;20010;-78
2023/03/30 05:54:08;;;;;;;23.23;4.70;;;;;;;10.63;85.80;100602.34;6096981;19;21025;-76
2023/03/30 05:56:13;;;;;;;26.05;4.80;;;;;;;10.67;85.50;100611.81;6099151;19;20512;-76
2023/03/30 05:58:19;;;;;;;23.45;4.30;;;;;;;10.69;85.32;100612.56;6101135;19;20029;-77
2023/03/30 06:00:25;;;;;;;15.05;4.45;;;;;;;10.70;85.33;100609.03;6098691;19;20014;-77
2023/03/30 06:02:53;;;;;;;18.00;4.65;;;;;;;10.71;85.01;100608.09;6070491;19;20413;-71
2023/03/30 06:05:08;;;;;;;18.70;5.22;;;;;;;10.73;85.23;100616.78;5981665;19;20023;-71
2023/03/30 06:07:44;;;;;;;17.10;3.70;;;;;;;10.77;85.02;100616.59;6081819;19;20617;-71
2023/03/30 06:10:12;;;;;;;27.00;5.22;;;;;;;10.80;85.02;100620.84;6014400;19;20577;-70
2023/03/30 06:12:30;;;;;;;24.17;4.82;;;;;;;10.77;84.87;100627.09;6064803;19;20005;-71
2023/03/30 06:15:11;;;;;;;18.15;5.43;;;;;;;10.81;84.71;100627.81;6080779;19;20530;-70
2023/03/30 06:17:45;;;;;;;25.10;5.72;;;;;;;10.82;84.72;100637.41;5987144;19;20590;-70
2023/03/30 06:20:22;;;;;;;22.17;4.43;;;;;;;10.85;84.99;100624.13;6060200;19;20075;-74
2023/03/30 06:22:40;;;;;;;34.58;5.43;;;;;;;10.85;84.74;100632.00;6048857;19;20007;-73
2023/03/30 06:25:12;;;;;;;16.70;4.35;;;;;;;10.85;84.89;100633.75;6102927;19;20503;-73
2023/03/30 06:27:30;;;;;;;;;;;;;;;10.84;84.78;100645.22;6086093;19;20003;-74
2023/03/30 06:29:48;;;;;;;23.10;4.85;;;;;;;10.86;84.82;100635.50;5947498;19;19919;-74
2023/03/30 06:32:03;;;;;;;24.00;5.47;;;;;;;10.90;84.73;100630.03;6068422;19;20695;-74
2023/03/30 06:34:27;;;;;;;20.63;4.40;;;;;;;10.91;84.71;100639.63;6029112;19;20058;-74
2023/03/30 06:36:35;;;;;;;24.92;4.10;;;;;;;10.96;84.36;100637.63;6101498;19;20619;-75
2023/03/30 06:38:52;;;;;;;19.77;4.65;;;;;;;10.93;84.59;100639.56;6102198;19;20007;-76
2023/03/30 06:40:58;;;;;;;20.00;4.32;;;;;;;10.90;84.55;100653.69;6098084;19;20015;-78
2023/03/30 06:43:03;;;;;;;24.27;5.57;;;;;;;10.85;84.86;100653.03;6102699;19;20019;-76
2023/03/30 06:45:10;;;;;;;23.65;5.10;;;;;;;10.91;84.69;100663.28;6105342;19;20014;-76
2023/03/30 06:47:14;;;;;;;24.48;5.03;;;;;;;10.97;84.72;100664.78;6094880;19;20186;-76
2023/03/30 06:49:20;;;;;;;32.10;6.45;;;;;;;10.98;84.56;100671.75;6104495;19;20017;-76
2023/03/30 06:51:25;;;;;;;28.35;7.68;;;;;;;10.99;84.79;100657.69;6107157;19;20015;-76
2023/03/30 06:53:30;;;;;;;25.17;5.47;;;;;;;11.06;84.21;100667.00;6100772;19;20006;-76
2023/03/30 06:55:38;;;;;;;27.20;6.10;;;;;;;11.12;84.17;100663.25;6103809;19;20023;-75
2023/03/30 06:57:43;;;;;;;33.03;7.25;;;;;;;11.06;84.04;100659.13;6106974;19;20027;-75
2023/03/30 06:59:50;;;;;;;25.98;5.60;;;;;;;11.07;84.03;100665.22;6106436;19;20021;-75
2023/03/30 07:01:55;;;;;;;20.23;5.32;;;;;;;11.21;83.55;100662.81;6107864;19;20023;-75
2023/03/30 07:04:01;;;;;;;24.77;5.85;;;;;;;11.28;82.88;100666.88;6084139;19;20006;-75
2023/03/30 07:06:07;;;;;;;23.85;6.07;;;;;;;11.43;82.56;100670.56;6107430;19;20006;-76
2023/03/30 07:08:13;;;;;;;35.42;6.22;;;;;;;11.33;82.53;100669.28;6108057;19;20495;-75
2023/03/30 07:10:18;;;;;;;25.52;6.85;;;;;;;11.34;82.61;100684.97;6106209;19;20014;-76
2023/03/30 07:12:26;;;;;;;29.00;5.70;;;;;;;11.37;82.62;100679.59;6102998;19;20006;-75
2023/03/30 07:14:31;;;;;;;25.65;6.43;;;;;;;11.47;82.09;100689.69;6105755;19;20452;-75
2023/03/30 07:16:37;;;;;;;26.58;5.63;;;;;;;11.46;82.18;100695.88;6109864;19;20024;-77
2023/03/30 07:18:43;;;;;;;28.88;5.80;;;;;;;11.46;82.45;100690.63;6106902;19;20711;-76
2023/03/30 07:20:48;;;;;;;23.63;5.00;;;;;;;11.48;82.78;100700.16;6105985;19;20022;-77
2023/03/30 07:22:53;;;;;;;25.10;5.90;;;;;;;11.45;83.01;100702.91;6106418;19;20583;-77
2023/03/30 07:24:58;;;;;;;33.55;6.13;;;;;;;11.48;82.75;100707.16;6107329;19;20557;-76
2023/03/30 07:27:02;;;;;;;30.17;6.95;;;;;;;11.46;83.24;100702.00;6107380;19;20519;-76
2023/03/30 07:29:10;;;;;;;28.98;6.50;;;;;;;11.37;83.34;100707.66;6107197;19;20048;-77
2023/03/30 07:31:16;;;;;;;36.17;6.80;;;;;;;11.39;83.34;100705.81;6106113;19;20013;-76
2023/03/30 07:33:21;;;;;;;34.42;6.40;;;;;;;11.34;83.40;100699.91;6105691;19;20081;-77
2023/03/30 07:35:26;;;;;;;26.35;6.65;;;;;;;11.42;83.44;100705.69;6103144;19;20515;-75
2023/03/30 07:37:31;;;;;;;39.28;9.32;;;;;;;11.34;83.44;100703.41;6106776;19;20019;-77
2023/03/30 07:39:36;;;;;;;29.38;7.05;;;;;;;11.32;83.32;100713.16;6106353;19;20040;-75
2023/03/30 07:41:43;;;;;;;37.15;8.95;;;;;;;11.33;83.39;100712.22;6107802;19;20018;-77
2023/03/30 07:43:48;;;;;;;34.90;7.10;;;;;;;11.37;83.67;100711.19;6108540;19;20019;-75
2023/03/30 07:45:55;;;;;;;36.45;9.10;;;;;;;11.33;83.89;100712.22;6107955;19;20034;-76
2023/03/30 07:48:00;;;;;;;26.35;6.85;;;;;;;11.44;83.60;100711.72;6108692;19;20023;-78
2023/03/30 07:50:06;;;;;;;31.65;6.38;;;;;;;11.41;83.92;100723.25;6105956;19;20696;-77
2023/03/30 07:52:11;;;;;;;27.33;6.70;;;;;;;11.45;83.60;100717.84;6104470;19;20764;-78
2023/03/30 07:54:16;;;;;;;32.40;7.10;;;;;;;11.34;83.32;100721.81;6108462;19;20007;-77
2023/03/30 07:56:22;;;;;;;28.15;5.30;;;;;;;11.31;83.45;100719.34;6105283;19;20013;-77
2023/03/30 07:58:28;;;;;;;25.13;6.35;;;;;;;11.47;83.00;100726.53;6109127;19;20026;-77
2023/03/30 08:00:32;;;;;;;25.42;5.25;;;;;;;11.49;82.94;100741.31;6105020;19;20011;-77
2023/03/30 08:02:43;;;;;;;26.25;5.43;;;;;;;11.45;82.92;100736.25;6106896;19;20097;-77
2023/03/30 08:04:48;;;;;;;29.25;5.70;;;;;;;11.65;82.69;100736.19;6102945;19;20482;-76
2023/03/30 08:06:55;;;;;;;34.25;6.90;;;;;;;11.63;82.21;100748.56;6106781;19;20377;-78
2023/03/30 08:09:00;;;;;;;31.08;6.78;;;;;;;12.00;81.32;100742.44;6105272;19;20028;-75
2023/03/30 08:11:28;;;;;;;;;;;;;;;;;;;;;
2023/03/30 08:17:09;;;;;;;30.58;6.47;;;;;;;12.23;80.61;100733.44;6057289;19;20006;-74
2023/03/30 08:19:47;;;;;;;26.88;5.55;;;;;;;12.15;80.56;100747.94;6005329;19;20023;-74
2023/03/30 08:22:24;;;;;;;33.53;5.82;;;;;;;12.57;79.16;100742.31;5988727;19;20386;-74
2023/03/30 08:25:41;;;;;;;;;;;;;;;;;;;;;
2023/03/30 08:34:26;;;;;;;;;;;;;;;;;;;;;
2023/03/30 08:37:27;;;;;;;27.55;6.10;;;;;;;13.46;74.11;100735.06;6051485;19;20011;-74
2023/03/30 08:42:57;;;;;;;35.80;7.93;;;;;;;13.45;73.92;100745.69;5964595;19;20018;-73
2023/03/30 08:48:43;;;;;;;27.98;5.35;;;;;;;13.77;71.83;100746.56;6076004;19;20310;-73
2023/03/30 08:54:24;;;;;;;27.33;6.60;;;;;;;13.76;71.67;100752.81;6004185;19;20039;-73
2023/03/30 08:56:59;;;;;;;;;;;;;;;;;;;;;
2023/03/30 08:59:21;;;;;;;28.48;7.38;;;;;;;13.59;72.49;100764.31;6053422;19;20515;-73
2023/03/30 09:01:38;;;;;;;;;;;;;;;13.81;71.53;100774.53;6032038;19;20062;-72
2023/03/30 09:04:20;;;;;;;29.83;5.88;;;;;;;13.63;71.66;100770.25;5975813;19;20425;-73
2023/03/30 09:06:49;;;;;;;29.53;7.70;;;;;;;13.63;71.32;100772.91;6005688;19;19998;-73
2023/03/30 09:09:20;;;;;;;;;;;;;;;13.44;72.17;100771.25;6048215;19;20490;-72
2023/03/30 09:11:53;;;;;;;31.67;5.82;;;;;;;14.10;70.34;100769.41;6013034;19;19910;-73
2023/03/30 09:14:55;;;;;;;28.52;5.68;;;;;;;14.53;69.22;100781.06;6068504;19;20118;-73
2023/03/30 09:18:01;;;;;;;;;;;;;;;;;;;;;
2023/03/30 09:20:36;;;;;;;28.50;5.82;;;;;;;14.36;69.40;100784.66;5991689;19;20006;-73
2023/03/30 09:23:18;;;;;;;24.63;6.38;;;;;;;13.95;69.96;100787.81;5988367;19;20019;-72
2023/03/30 09:26:33;;;;;;;45.83;7.43;;;;;;;13.91;70.41;100788.09;5974996;19;20047;-72
2023/03/30 09:29:50;;;;;;;32.60;5.22;;;;;;;13.93;70.82;100784.44;6049865;19;20045;-73
2023/03/30 09:32:34;;;;;;;30.80;6.38;;;;;;;14.15;69.81;100792.00;5972157;19;20027;-73
2023/03/30 09:35:45;;;;;;;24.60;5.22;;;;;;;14.48;69.46;100797.19;5991467;19;20014;-72
2023/03/30 09:38:25;;;;;;;;;;;;;;;;;;;;;
2023/03/30 09:41:19;;;;;;;26.67;6.13;;;;;;;14.16;70.21;100788.41;6045394;19;20470;-73
2023/03/30 09:43:53;;;;;;;26.77;5.75;;;;;;;14.38;67.61;100789.88;5970835;19;20006;-72
2023/03/30 09:46:37;;;;;;;29.35;5.60;;;;;;;14.87;67.26;100803.75;6063546;19;20479;-74
2023/03/30 09:52:15;;;;;;;26.52;4.80;;;;;;;14.93;66.15;100795.47;5989911;19;20113;-73
2023/03/30 09:54:53;;;;;;;24.98;5.35;;;;;;;15.01;64.92;100802.94;6044021;19;20022;-74
2023/03/30 09:57:16;;;;;;;28.85;6.28;;;;;;;15.31;64.78;100789.63;6042281;19;20383;-74
2023/03/30 10:00:25;;;;;;;27.98;5.00;;;;;;;15.19;64.72;100811.53;5993038;19;20505;-73
2023/03/30 10:03:42;;;;;;;35.95;6.93;;;;;;;15.22;64.33;100810.50;6014955;19;20054;-73
2023/03/30 10:06:21;;;;;;;28.55;5.10;;;;;;;15.01;65.05;100823.22;5983154;19;20036;-73
2023/03/30 10:09:08;;;;;;;23.95;4.45;;;;;;;14.62;65.58;100827.28;6012917;19;20631;-74
2023/03/30 10:14:56;;;;;;;27.42;5.70;;;;;;;14.70;65.25;100827.69;5993715;19;20011;-73
2023/03/30 10:17:53;;;;;;;31.75;6.05;;;;;;;14.65;66.21;100845.63;6064064;19;20013;-73
2023/03/30 10:20:35;;;;;;;34.83;6.65;;;;;;;14.53;67.16;100833.09;6037572;19;20007;-73
2023/03/30 10:23:21;;;;;;;25.90;5.40;;;;;;;14.80;66.48;100825.38;6073768;19;20002;-73
2023/03/30 10:26:22;;;;;;;;;;;;;;;;;;;;;
2023/03/30 10:31:56;;;;;;;26.83;4.38;;;;;;;15.40;65.28;100821.78;6047379;19;20030;-73
2023/03/30 10:35:08;;;;;;;24.00;5.40;;;;;;;15.39;nan;100830.69;5999655;19;20010;-73
2023/03/30 10:43:44;;;;;;;;;;;;;;;;;;;;;
2023/03/30 10:55:23;;;;;;;31.67;6.30;;;;;;;14.59;66.66;100838.91;6016802;19;20113;-73
2023/03/30 10:58:18;;;;;;;23.60;5.47;;;;;;;14.14;67.56;100835.25;5973546;19;20078;-74
2023/03/30 11:04:31;;;;;;;29.20;5.22;;;;;;;14.37;67.58;100838.38;5969345;19;20015;-74
2023/03/30 11:10:21;;;;;;;27.30;5.47;;;;;;;14.20;68.17;100849.91;5992113;19;20035;-74
2023/03/30 11:22:46;;;;;;;27.45;5.93;;;;;;;14.52;67.46;100860.44;5915374;19;20030;-74
2023/03/30 11:26:12;;;;;;;30.60;5.28;;;;;;;14.23;68.31;100860.28;6031820;19;20010;-73
2023/03/30 11:32:37;;;;;;;24.83;5.00;;;;;;;13.66;71.34;100871.28;6002559;19;20006;-73
2023/03/30 11:38:36;;;;;;;;;;;;;;;13.67;75.17;100880.06;6058332;19;20380;-74
2023/03/30 11:43:35;;;;;;;32.35;6.20;;;;;;;13.46;75.89;100884.69;6015099;19;20003;-74
2023/03/30 11:46:28;;;;;;;30.85;6.65;;;;;;;13.48;77.09;100877.53;5931300;19;20076;-74
2023/03/30 11:49:07;;;;;;;22.65;5.53;;;;;;;13.50;77.26;100873.88;6009124;19;20039;-74
2023/03/30 11:51:48;;;;;;;38.53;6.78;;;;;;;13.48;76.16;100883.69;6034756;19;20015;-75
2023/03/30 11:54:21;;;;;;;41.88;7.20;;;;;;;13.46;76.95;100892.59;6073117;19;20042;-73
2023/03/30 11:56:45;;;;;;;33.40;5.28;;;;;;;13.21;77.72;100887.69;6102447;19;20011;-73
2023/03/30 11:59:00;;;;;;;24.55;4.82;;;;;;;13.08;78.45;100884.81;6102309;19;20041;-74
2023/03/30 12:01:22;;;;;;;25.25;5.55;;;;;;;13.15;78.80;100896.75;6102782;19;20341;-73
2023/03/30 12:06:49;;;;;;;27.40;5.50;;;;;;;12.85;80.68;100901.75;6097249;19;20014;-73
2023/03/30 12:16:09;;;;;;;32.60;6.22;;;;;;;13.08;80.92;100901.47;5996341;19;20106;-74
2023/03/30 12:19:06;;;;;;;23.85;5.38;;;;;;;12.71;81.10;100897.16;6014423;19;20068;-73
2023/03/30 12:21:39;;;;;;;36.03;6.68;;;;;;;12.68;81.77;100903.44;6042759;19;20413;-73
2023/03/30 12:24:09;;;;;;;36.08;6.18;;;;;;;12.57;81.56;100918.09;6011551;19;20464;-72
2023/03/30 12:26:27;;;;;;;;;;;;;;;12.49;82.41;100902.63;6096523;19;20586;-73
2023/03/30 12:29:16;;;;;;;29.33;5.55;;;;;;;12.40;83.05;100913.59;6098243;19;19921;-72
2023/03/30 12:31:50;;;;;;;30.02;5.90;;;;;;;12.45;83.16;100907.19;6085859;19;20840;-72
2023/03/30 12:34:49;;;;;;;28.38;6.20;;;;;;;12.52;82.59;100898.06;6056741;19;20010;-72
2023/03/30 12:38:14;;;;;;;;;;;;;;;;;;;;;
2023/03/30 12:40:52;;;;;;;26.95;5.55;;;;;;;12.73;81.77;100906.72;5964402;19;20018;-73
2023/03/30 12:44:05;;;;;;;23.05;5.95;;;;;;;12.94;81.33;100904.81;6020297;19;20014;-73
2023/03/30 12:46:51;;;;;;;25.33;5.30;;;;;;;13.11;80.56;100888.16;6055347;19;20070;-73
2023/03/30 12:49:08;;;;;;;31.10;5.60;;;;;;;13.23;80.24;100877.91;6101468;19;20089;-73
2023/03/30 12:51:35;;;;;;;29.83;5.72;;;;;;;13.29;80.12;100882.91;6077768;19;20011;-72
2023/03/30 12:54:27;;;;;;;26.13;4.50;;;;;;;13.24;79.28;100871.69;6091703;19;20979;-72
2023/03/30 12:56:39;;;;;;;31.60;5.50;;;;;;;13.40;79.12;100877.91;6099882;19;20397;-74
2023/03/30 12:59:03;;;;;;;29.73;5.88;;;;;;;13.47;78.45;100887.22;6101301;19;20006;-73
2023/03/30 13:01:41;;;;;;;32.80;6.53;;;;;;;13.50;78.64;100873.88;6094415;19;20871;-73
2023/03/30 13:03:53;;;;;;;23.15;5.00;;;;;;;13.71;78.36;100892.16;6067661;19;20042;-73
2023/03/30 13:06:02;;;;;;;28.00;5.25;;;;;;;13.54;77.36;100880.72;6097323;19;20426;-73
2023/03/30 13:08:19;;;;;;;44.35;6.53;;;;;;;13.57;76.76;100872.63;6097164;19;20017;-74
2023/03/30 13:10:41;;;;;;;21.73;5.30;;;;;;;13.55;75.91;100885.03;6095677;19;20010;-73
2023/03/30 13:12:48;;;;;;;31.95;6.78;;;;;;;13.77;76.57;100875.97;6097593;19;20010;-73
2023/03/30 13:15:00;;;;;;;30.70;4.50;;;;;;;13.84;74.49;100874.72;6099533;19;20368;-73
2023/03/30 13:17:13;;;;;;;24.77;4.87;;;;;;;13.77;74.27;100905.03;6097128;19;20006;-73
2023/03/30 13:19:30;;;;;;;28.83;5.63;;;;;;;13.91;75.07;100876.13;6095752;19;20455;-73
2023/03/30 13:21:52;;;;;;;24.92;5.80;;;;;;;14.02;73.94;100878.19;6092103;19;20003;-73
2023/03/30 13:24:27;;;;;;;19.80;4.88;;;;;;;14.15;73.38;100873.09;6098038;19;20680;-72
2023/03/30 13:26:46;;;;;;;19.08;4.60;;;;;;;14.04;71.90;100871.03;6093718;19;20021;-72
2023/03/30 13:29:23;;;;;;;26.38;5.03;;;;;;;14.24;72.61;100867.28;6098824;19;20204;-72
2023/03/30 13:31:45;;;;;;;27.90;5.43;;;;;;;14.37;72.26;100865.66;6095007;19;20021;-72
2023/03/30 13:33:59;;;;;;;29.58;5.15;;;;;;;14.12;72.64;100863.53;6099270;19;20110;-72
2023/03/30 13:36:11;;;;;;;30.50;5.70;;;;;;;13.97;72.99;100859.91;6089290;19;20074;-72
2023/03/30 13:38:32;;;;;;;25.25;4.32;;;;;;;14.07;72.51;100864.72;6094856;19;20017;-73
2023/03/30 13:43:31;;;;;;;19.88;4.40;;;;;;;14.03;73.28;100874.59;6090010;19;20368;-72
2023/03/30 13:46:02;;;;;;;27.98;5.45;;;;;;;14.04;73.71;100856.03;6082306;19;20006;-72
2023/03/30 13:49:12;;;;;;;23.95;4.97;;;;;;;14.21;72.92;100851.59;6051618;19;19998;-72
2023/03/30 13:51:52;;;;;;;21.13;5.03;;;;;;;14.21;72.17;100835.72;5986330;19;20019;-72
2023/03/30 13:54:28;;;;;;;29.98;5.20;;;;;;;14.42;71.09;100847.75;6046329;19;20011;-73
2023/03/30 13:59:58;;;;;;;27.45;6.03;;;;;;;14.55;70.34;100841.78;5997612;19;20015;-73
2023/03/30 14:02:26;;;;;;;25.48;5.35;;;;;;;14.50;70.27;100836.72;5987851;19;20039;-72
2023/03/30 14:04:39;;;;;;;22.33;3.97;;;;;;;14.61;70.30;100844.09;6030400;19;20014;-74
2023/03/30 14:06:53;;;;;;;26.33;5.75;;;;;;;14.64;69.76;100833.31;6071137;19;20006;-73
2023/03/30 14:09:22;;;;;;;29.08;5.20;;;;;;;14.76;69.48;100840.56;6066794;19;20015;-73
2023/03/30 14:11:43;;;;;;;23.52;5.05;;;;;;;14.87;69.54;100843.44;6047696;19;20127;-74
2023/03/30 14:14:08;;;;;;;22.95;4.35;;;;;;;14.88;68.62;100842.50;6050581;19;20662;-73
2023/03/30 14:16:20;;;;;;;25.73;4.72;;;;;;;14.90;68.45;100845.91;6049866;19;20010;-73
2023/03/30 14:18:33;;;;;;;33.20;4.90;;;;;;;14.96;68.89;100854.44;6090218;19;20010;-73
2023/03/30 14:20:56;;;;;;;27.73;4.53;;;;;;;15.08;68.65;100853.69;6096966;19;20002;-73
2023/03/30 14:23:03;;;;;;;21.17;4.38;;;;;;;14.86;67.84;100854.97;6068451;19;20015;-73
2023/03/30 14:25:30;;;;;;;29.35;4.47;;;;;;;14.96;69.28;100850.00;6087827;19;20002;-73
2023/03/30 14:27:39;;;;;;;25.52;4.55;;;;;;;14.93;69.15;100851.03;6068485;19;20013;-73
2023/03/30 14:29:55;;;;;;;25.58;5.68;;;;;;;14.79;69.35;100852.75;6055151;19;20043;-73
2023/03/30 14:32:19;;;;;;;19.83;4.65;;;;;;;14.42;70.39;100853.03;6073106;19;20002;-73
2023/03/30 14:34:29;;;;;;;24.95;4.38;;;;;;;14.34;70.32;100849.97;6078515;19;20014;-73
2023/03/30 14:36:42;;;;;;;29.15;6.00;;;;;;;14.62;70.49;100851.09;6099193;19;20014;-73
2023/03/30 14:38:57;;;;;;;31.45;5.38;;;;;;;14.77;70.49;100844.94;6035905;19;20003;-73
2023/03/30 14:41:21;;;;;;;22.90;4.80;;;;;;;14.89;69.75;100852.13;6056686;19;20002;-73
2023/03/30 14:43:44;;;;;;;24.10;6.72;;;;;;;14.84;68.98;100843.59;6024222;19;20066;-73
2023/03/30 14:46:13;;;;;;;23.60;4.82;;;;;;;14.64;69.68;100846.53;6096779;19;20038;-73
2023/03/30 14:48:29;;;;;;;28.45;4.78;;;;;;;14.80;69.18;100847.41;6097124;19;20491;-74
2023/03/30 14:50:47;;;;;;;26.17;5.07;;;;;;;14.50;69.07;100855.25;6047700;19;20486;-74
2023/03/30 14:53:25;;;;;;;23.30;5.20;;;;;;;14.35;70.38;100850.81;6050359;19;20006;-74
2023/03/30 14:55:55;;;;;;;24.08;4.93;;;;;;;14.58;70.58;100852.19;5914247;19;20002;-73
2023/03/30 14:58:39;;;;;;;18.63;4.07;;;;;;;14.73;69.77;100842.53;6040074;19;20044;-73
2023/03/30 15:01:29;;;;;;;22.35;5.15;;;;;;;14.53;69.30;100846.31;6067629;19;20031;-73